0R0

Columbia-Marion County Airport

Columbia, Mississippi, USA
METAR K0R0 230855Z AUTO 00000KT 10SM CLR 11/11 A2996 RMK AO2
Observed Flight Rules
Apr-23 @ 08:55 UTC (42 minutes ago) Visual Flight Rules
Visibility Clouds
10 miles
  • Clear skies
Temperatures Readings
Current 11°C / 52°F
Dewpoint 11°C / 52°F
Humidity 100%
Altimeter 29.96" Hg
Pressure 1015 hPa
Elevation 81
METAR K0R0 230855Z AUTO 00000KT 10SM CLR 11/11 A2996 RMK AO2
Observed Flight Rules
Apr-23 @ 08:55 UTC
(42 minutes ago)
VFR
Clouds
  • Clear skies
Temperature Dewpoint
11°C / 52°F 11°C / 52°F
Humidity Altimeter Pressure
100% 29.96" Hg 1015 hPa